sensor_id;sensor_type;location;lat;lon;timestamp;pressure;altitude;pressure_sealevel;temperature;humidity
55685;BME280;41883;49.544;8.646;2023-08-21T00:03:17;100842.28;;;23.35;nan
55685;BME280;41883;49.544;8.646;2023-08-21T00:05:43;100843.56;;;23.32;nan
55685;BME280;41883;49.544;8.646;2023-08-21T00:08:08;100832.41;;;23.29;nan
55685;BME280;41883;49.544;8.646;2023-08-21T00:10:33;100830.53;;;23.29;nan
55685;BME280;41883;49.544;8.646;2023-08-21T00:13:02;100833.47;;;23.28;nan
55685;BME280;41883;49.544;8.646;2023-08-21T00:15:27;100829.56;;;23.24;nan
55685;BME280;41883;49.544;8.646;2023-08-21T00:17:52;100840.47;;;23.17;nan
55685;BME280;41883;49.544;8.646;2023-08-21T00:20:17;100844.78;;;23.18;nan
55685;BME280;41883;49.544;8.646;2023-08-21T00:22:43;100828.38;;;23.20;nan
55685;BME280;41883;49.544;8.646;2023-08-21T00:25:08;100840.00;;;23.20;nan
55685;BME280;41883;49.544;8.646;2023-08-21T00:27:34;100847.28;;;23.20;nan
55685;BME280;41883;49.544;8.646;2023-08-21T00:30:00;100841.28;;;23.18;nan
55685;BME280;41883;49.544;8.646;2023-08-21T00:32:25;100847.16;;;23.15;nan
55685;BME280;41883;49.544;8.646;2023-08-21T00:37:15;100838.66;;;23.11;nan
55685;BME280;41883;49.544;8.646;2023-08-21T00:39:40;100855.06;;;23.09;nan
55685;BME280;41883;49.544;8.646;2023-08-21T00:42:06;100846.03;;;23.04;nan
55685;BME280;41883;49.544;8.646;2023-08-21T00:44:32;100840.25;;;23.00;nan
55685;BME280;41883;49.544;8.646;2023-08-21T00:46:57;100838.81;;;22.98;nan
55685;BME280;41883;49.544;8.646;2023-08-21T00:49:22;100839.84;;;22.97;nan
55685;BME280;41883;49.544;8.646;2023-08-21T00:51:48;100835.72;;;22.94;nan
55685;BME280;41883;49.544;8.646;2023-08-21T00:54:14;100834.91;;;22.94;nan
55685;BME280;41883;49.544;8.646;2023-08-21T00:56:40;100838.88;;;22.91;nan
55685;BME280;41883;49.544;8.646;2023-08-21T00:59:05;100840.38;;;22.87;nan
55685;BME280;41883;49.544;8.646;2023-08-21T01:01:30;100838.34;;;22.82;nan
55685;BME280;41883;49.544;8.646;2023-08-21T01:03:57;100829.31;;;22.77;nan
55685;BME280;41883;49.544;8.646;2023-08-21T01:06:22;100839.34;;;22.69;nan
55685;BME280;41883;49.544;8.646;2023-08-21T01:11:21;100832.28;;;22.68;nan
55685;BME280;41883;49.544;8.646;2023-08-21T01:13:55;100836.03;;;22.67;nan
55685;BME280;41883;49.544;8.646;2023-08-21T01:16:24;100836.50;;;22.64;nan
55685;BME280;41883;49.544;8.646;2023-08-21T01:18:49;100841.50;;;22.61;nan
55685;BME280;41883;49.544;8.646;2023-08-21T01:21:14;100838.19;;;22.59;nan
55685;BME280;41883;49.544;8.646;2023-08-21T01:23:40;100843.22;;;22.55;nan
55685;BME280;41883;49.544;8.646;2023-08-21T01:26:07;100845.31;;;22.53;nan
55685;BME280;41883;49.544;8.646;2023-08-21T01:28:32;100853.69;;;22.45;nan
55685;BME280;41883;49.544;8.646;2023-08-21T01:33:47;100843.50;;;22.29;nan
55685;BME280;41883;49.544;8.646;2023-08-21T01:36:15;100848.03;;;22.28;nan
55685;BME280;41883;49.544;8.646;2023-08-21T01:38:40;100842.28;;;22.24;nan
55685;BME280;41883;49.544;8.646;2023-08-21T01:41:05;100841.66;;;22.22;nan
55685;BME280;41883;49.544;8.646;2023-08-21T01:43:30;100844.78;;;22.19;nan
55685;BME280;41883;49.544;8.646;2023-08-21T01:45:56;100844.84;;;22.13;nan
55685;BME280;41883;49.544;8.646;2023-08-21T01:48:21;100843.63;;;22.09;nan
55685;BME280;41883;49.544;8.646;2023-08-21T01:50:46;100843.25;;;22.05;nan
55685;BME280;41883;49.544;8.646;2023-08-21T01:53:11;100837.88;;;22.05;nan
55685;BME280;41883;49.544;8.646;2023-08-21T01:55:36;100845.34;;;22.03;nan
55685;BME280;41883;49.544;8.646;2023-08-21T01:58:02;100845.19;;;21.98;nan
55685;BME280;41883;49.544;8.646;2023-08-21T02:00:27;100841.09;;;21.89;nan
55685;BME280;41883;49.544;8.646;2023-08-21T02:02:52;100837.63;;;21.81;nan
55685;BME280;41883;49.544;8.646;2023-08-21T02:05:17;100837.19;;;21.84;nan
55685;BME280;41883;49.544;8.646;2023-08-21T02:07:42;100850.00;;;21.89;nan
55685;BME280;41883;49.544;8.646;2023-08-21T02:10:08;100846.25;;;21.90;nan
55685;BME280;41883;49.544;8.646;2023-08-21T02:12:33;100849.78;;;21.91;nan
55685;BME280;41883;49.544;8.646;2023-08-21T02:14:58;100856.59;;;21.93;nan
55685;BME280;41883;49.544;8.646;2023-08-21T02:17:25;100847.91;;;21.91;nan
55685;BME280;41883;49.544;8.646;2023-08-21T02:19:50;100851.25;;;21.87;nan
55685;BME280;41883;49.544;8.646;2023-08-21T02:22:16;100859.94;;;21.89;nan
55685;BME280;41883;49.544;8.646;2023-08-21T02:24:41;100855.34;;;21.96;nan
55685;BME280;41883;49.544;8.646;2023-08-21T02:27:06;100854.69;;;22.00;nan
55685;BME280;41883;49.544;8.646;2023-08-21T02:29:31;100854.44;;;22.02;nan
55685;BME280;41883;49.544;8.646;2023-08-21T02:31:56;100854.03;;;22.05;nan
55685;BME280;41883;49.544;8.646;2023-08-21T02:34:21;100855.66;;;22.06;nan
55685;BME280;41883;49.544;8.646;2023-08-21T02:36:47;100854.03;;;22.05;nan
55685;BME280;41883;49.544;8.646;2023-08-21T02:39:12;100853.84;;;22.00;nan
55685;BME280;41883;49.544;8.646;2023-08-21T02:41:37;100849.94;;;21.96;nan
55685;BME280;41883;49.544;8.646;2023-08-21T02:44:02;100856.16;;;21.96;nan
55685;BME280;41883;49.544;8.646;2023-08-21T02:46:27;100844.56;;;21.96;nan
55685;BME280;41883;49.544;8.646;2023-08-21T02:48:53;100850.75;;;21.96;nan
55685;BME280;41883;49.544;8.646;2023-08-21T02:51:18;100850.75;;;21.96;nan
55685;BME280;41883;49.544;8.646;2023-08-21T02:53:43;100849.56;;;21.92;nan
55685;BME280;41883;49.544;8.646;2023-08-21T02:56:08;100849.19;;;21.89;nan
55685;BME280;41883;49.544;8.646;2023-08-21T02:58:33;100853.34;;;21.84;nan
55685;BME280;41883;49.544;8.646;2023-08-21T03:00:58;100849.06;;;21.77;nan
55685;BME280;41883;49.544;8.646;2023-08-21T03:03:24;100854.28;;;21.72;nan
55685;BME280;41883;49.544;8.646;2023-08-21T03:05:49;100853.41;;;21.71;nan
55685;BME280;41883;49.544;8.646;2023-08-21T03:08:14;100861.72;;;21.70;nan
55685;BME280;41883;49.544;8.646;2023-08-21T03:10:39;100858.44;;;21.68;nan
55685;BME280;41883;49.544;8.646;2023-08-21T03:13:04;100858.03;;;21.64;nan
55685;BME280;41883;49.544;8.646;2023-08-21T03:17:55;100859.94;;;21.57;nan
55685;BME280;41883;49.544;8.646;2023-08-21T03:20:20;100862.63;;;21.57;nan
55685;BME280;41883;49.544;8.646;2023-08-21T03:22:46;100857.25;;;21.57;nan
55685;BME280;41883;49.544;8.646;2023-08-21T03:25:11;100858.28;;;21.56;nan
55685;BME280;41883;49.544;8.646;2023-08-21T03:27:36;100858.50;;;21.54;nan
55685;BME280;41883;49.544;8.646;2023-08-21T03:30:07;100864.53;;;21.50;nan
55685;BME280;41883;49.544;8.646;2023-08-21T03:32:33;100872.22;;;21.46;nan
55685;BME280;41883;49.544;8.646;2023-08-21T03:34:58;100871.22;;;21.40;nan
55685;BME280;41883;49.544;8.646;2023-08-21T03:37:23;100865.59;;;21.35;nan
55685;BME280;41883;49.544;8.646;2023-08-21T03:39:48;100856.94;;;21.33;nan
55685;BME280;41883;49.544;8.646;2023-08-21T03:42:13;100866.03;;;21.32;nan
55685;BME280;41883;49.544;8.646;2023-08-21T03:44:39;100861.09;;;21.29;nan
55685;BME280;41883;49.544;8.646;2023-08-21T03:47:04;100862.34;;;21.27;nan
55685;BME280;41883;49.544;8.646;2023-08-21T03:49:29;100863.63;;;21.24;nan
55685;BME280;41883;49.544;8.646;2023-08-21T03:51:54;100861.56;;;21.19;nan
55685;BME280;41883;49.544;8.646;2023-08-21T03:56:45;100859.94;;;21.12;nan
55685;BME280;41883;49.544;8.646;2023-08-21T04:01:35;100843.59;;;21.07;nan
55685;BME280;41883;49.544;8.646;2023-08-21T04:04:00;100868.44;;;21.02;nan
55685;BME280;41883;49.544;8.646;2023-08-21T04:06:25;100863.72;;;20.97;nan
55685;BME280;41883;49.544;8.646;2023-08-21T04:08:50;100859.56;;;20.95;nan
55685;BME280;41883;49.544;8.646;2023-08-21T04:11:16;100867.63;;;20.95;nan
55685;BME280;41883;49.544;8.646;2023-08-21T04:13:42;100877.78;;;20.93;nan
55685;BME280;41883;49.544;8.646;2023-08-21T04:16:07;100872.41;;;20.93;nan
55685;BME280;41883;49.544;8.646;2023-08-21T04:18:33;100865.78;;;20.95;nan
55685;BME280;41883;49.544;8.646;2023-08-21T04:20:58;100874.69;;;20.96;nan
55685;BME280;41883;49.544;8.646;2023-08-21T04:23:23;100871.56;;;20.92;nan
55685;BME280;41883;49.544;8.646;2023-08-21T04:25:48;100875.75;;;20.88;nan
55685;BME280;41883;49.544;8.646;2023-08-21T04:28:13;100877.00;;;20.86;nan
55685;BME280;41883;49.544;8.646;2023-08-21T04:30:41;100874.50;;;20.84;nan
55685;BME280;41883;49.544;8.646;2023-08-21T04:33:07;100881.13;;;20.82;nan
55685;BME280;41883;49.544;8.646;2023-08-21T04:35:36;100876.78;;;20.81;nan
55685;BME280;41883;49.544;8.646;2023-08-21T04:38:01;100878.63;;;20.87;nan
55685;BME280;41883;49.544;8.646;2023-08-21T04:40:26;100888.13;;;20.89;nan
55685;BME280;41883;49.544;8.646;2023-08-21T04:42:51;100876.56;;;20.89;nan
55685;BME280;41883;49.544;8.646;2023-08-21T04:45:16;100884.00;;;20.87;nan
55685;BME280;41883;49.544;8.646;2023-08-21T04:47:42;100886.50;;;20.88;nan
55685;BME280;41883;49.544;8.646;2023-08-21T04:50:07;100887.31;;;20.89;nan
55685;BME280;41883;49.544;8.646;2023-08-21T04:52:32;100884.00;;;20.87;nan
55685;BME280;41883;49.544;8.646;2023-08-21T04:54:57;100890.19;;;20.87;nan
55685;BME280;41883;49.544;8.646;2023-08-21T04:57:22;100888.75;;;20.91;nan
55685;BME280;41883;49.544;8.646;2023-08-21T04:59:48;100888.56;;;20.93;nan
55685;BME280;41883;49.544;8.646;2023-08-21T05:02:13;100888.94;;;20.96;nan
55685;BME280;41883;49.544;8.646;2023-08-21T05:04:38;100888.94;;;20.96;nan
55685;BME280;41883;49.544;8.646;2023-08-21T05:07:04;100889.75;;;20.97;nan
55685;BME280;41883;49.544;8.646;2023-08-21T05:09:30;100895.56;;;21.00;nan
55685;BME280;41883;49.544;8.646;2023-08-21T05:11:55;100892.84;;;21.07;nan
55685;BME280;41883;49.544;8.646;2023-08-21T05:14:20;100896.34;;;21.14;nan
55685;BME280;41883;49.544;8.646;2023-08-21T05:16:46;100907.03;;;21.21;nan
55685;BME280;41883;49.544;8.646;2023-08-21T05:19:11;100892.94;;;21.32;nan
55685;BME280;41883;49.544;8.646;2023-08-21T05:24:01;100900.06;;;21.65;nan
55685;BME280;41883;49.544;8.646;2023-08-21T05:26:27;100902.63;;;21.85;nan
55685;BME280;41883;49.544;8.646;2023-08-21T05:28:52;100901.72;;;21.98;nan
55685;BME280;41883;49.544;8.646;2023-08-21T05:31:17;100920.22;;;22.19;nan
55685;BME280;41883;49.544;8.646;2023-08-21T05:33:42;100908.03;;;22.42;nan
55685;BME280;41883;49.544;8.646;2023-08-21T05:36:08;100915.25;;;22.66;nan
55685;BME280;41883;49.544;8.646;2023-08-21T05:38:33;100922.50;;;22.91;nan
55685;BME280;41883;49.544;8.646;2023-08-21T05:40:58;100931.94;;;23.19;nan
55685;BME280;41883;49.544;8.646;2023-08-21T05:43:23;100934.03;;;23.35;nan
55685;BME280;41883;49.544;8.646;2023-08-21T05:45:49;100934.31;;;23.45;nan
55685;BME280;41883;49.544;8.646;2023-08-21T05:48:14;100926.56;;;23.67;nan
55685;BME280;41883;49.544;8.646;2023-08-21T05:50:39;100941.88;;;24.04;nan
55685;BME280;41883;49.544;8.646;2023-08-21T05:53:04;100934.84;;;24.26;nan
55685;BME280;41883;49.544;8.646;2023-08-21T06:15:03;54024.09;;;22.42;100.00
55685;BME280;41883;49.544;8.646;2023-08-21T07:20:48;65941.84;;;22.46;100.00
55685;BME280;41883;49.544;8.646;2023-08-21T08:09:33;101007.16;;;35.21;nan
55685;BME280;41883;49.544;8.646;2023-08-21T08:11:59;101001.34;;;35.23;nan
55685;BME280;41883;49.544;8.646;2023-08-21T08:14:27;101007.56;;;35.28;nan
55685;BME280;41883;49.544;8.646;2023-08-21T08:16:55;101002.47;;;35.36;nan
55685;BME280;41883;49.544;8.646;2023-08-21T08:19:21;100999.59;;;35.41;nan
55685;BME280;41883;49.544;8.646;2023-08-21T08:21:46;101001.47;;;35.82;nan
55685;BME280;41883;49.544;8.646;2023-08-21T08:24:12;100998.22;;;36.16;nan
55685;BME280;41883;49.544;8.646;2023-08-21T08:26:37;101004.84;;;36.15;nan
55685;BME280;41883;49.544;8.646;2023-08-21T08:29:03;101007.84;;;35.68;nan
55685;BME280;41883;49.544;8.646;2023-08-21T08:31:28;101012.75;;;35.94;nan
55685;BME280;41883;49.544;8.646;2023-08-21T08:33:54;100993.72;;;36.51;nan
55685;BME280;41883;49.544;8.646;2023-08-21T08:36:19;101003.81;;;37.27;nan
55685;BME280;41883;49.544;8.646;2023-08-21T08:38:45;101006.34;;;37.55;nan
55685;BME280;41883;49.544;8.646;2023-08-21T08:41:19;101002.44;;;37.82;nan
55685;BME280;41883;49.544;8.646;2023-08-21T08:43:50;101011.88;;;38.33;nan
55685;BME280;41883;49.544;8.646;2023-08-21T08:46:15;101004.69;;;38.50;nan
55685;BME280;41883;49.544;8.646;2023-08-21T08:48:44;101003.59;;;38.80;nan
55685;BME280;41883;49.544;8.646;2023-08-21T08:51:13;100999.69;;;39.20;nan
55685;BME280;41883;49.544;8.646;2023-08-21T08:53:39;100996.53;;;39.30;nan
55685;BME280;41883;49.544;8.646;2023-08-21T08:56:07;101003.69;;;39.01;nan
55685;BME280;41883;49.544;8.646;2023-08-21T08:58:33;100996.16;;;39.11;nan
55685;BME280;41883;49.544;8.646;2023-08-21T09:00:59;101003.59;;;39.48;nan
55685;BME280;41883;49.544;8.646;2023-08-21T09:03:24;100991.53;;;39.74;nan
55685;BME280;41883;49.544;8.646;2023-08-21T09:05:51;100994.78;;;40.30;nan
55685;BME280;41883;49.544;8.646;2023-08-21T09:08:16;100990.41;;;40.29;nan
55685;BME280;41883;49.544;8.646;2023-08-21T09:10:47;100987.19;;;40.06;nan
55685;BME280;41883;49.544;8.646;2023-08-21T09:13:13;100988.09;;;40.31;nan
55685;BME280;41883;49.544;8.646;2023-08-21T09:15:40;100995.59;;;41.01;nan
55685;BME280;41883;49.544;8.646;2023-08-21T09:18:09;100986.44;;;41.78;nan
55685;BME280;41883;49.544;8.646;2023-08-21T09:20:35;100994.47;;;42.08;nan
55685;BME280;41883;49.544;8.646;2023-08-21T09:23:01;100989.66;;;42.36;nan
55685;BME280;41883;49.544;8.646;2023-08-21T09:25:27;100991.41;;;42.73;nan
55685;BME280;41883;49.544;8.646;2023-08-21T09:27:53;100988.41;;;43.13;nan
55685;BME280;41883;49.544;8.646;2023-08-21T09:30:18;100984.13;;;42.68;nan
55685;BME280;41883;49.544;8.646;2023-08-21T09:35:22;100989.16;;;42.47;nan
55685;BME280;41883;49.544;8.646;2023-08-21T09:37:48;100980.19;;;42.09;nan
55685;BME280;41883;49.544;8.646;2023-08-21T09:40:15;100980.06;;;42.34;nan
55685;BME280;41883;49.544;8.646;2023-08-21T09:42:40;100985.22;;;42.79;nan
55685;BME280;41883;49.544;8.646;2023-08-21T09:45:06;100982.97;;;43.01;nan
55685;BME280;41883;49.544;8.646;2023-08-21T09:47:33;100971.13;;;42.88;nan
55685;BME280;41883;49.544;8.646;2023-08-21T09:49:59;100976.41;;;42.77;nan
55685;BME280;41883;49.544;8.646;2023-08-21T09:52:25;100982.06;;;42.65;nan
55685;BME280;41883;49.544;8.646;2023-08-21T09:54:57;100981.03;;;43.05;nan
55685;BME280;41883;49.544;8.646;2023-08-21T09:57:23;100983.47;;;43.06;nan
55685;BME280;41883;49.544;8.646;2023-08-21T09:59:52;100976.97;;;42.83;nan
55685;BME280;41883;49.544;8.646;2023-08-21T10:02:21;100974.78;;;43.08;nan
55685;BME280;41883;49.544;8.646;2023-08-21T10:04:48;100971.75;;;43.52;nan
55685;BME280;41883;49.544;8.646;2023-08-21T10:07:20;100960.44;;;43.80;nan
55685;BME280;41883;49.544;8.646;2023-08-21T10:09:51;100968.88;;;42.62;nan
55685;BME280;41883;49.544;8.646;2023-08-21T10:12:20;100971.75;;;43.33;nan
55685;BME280;41883;49.544;8.646;2023-08-21T10:14:47;100966.97;;;43.68;nan
55685;BME280;41883;49.544;8.646;2023-08-21T10:17:12;100964.41;;;44.22;nan
55685;BME280;41883;49.544;8.646;2023-08-21T10:19:38;100954.06;;;44.22;nan
55685;BME280;41883;49.544;8.646;2023-08-21T10:22:03;100957.81;;;44.34;nan
55685;BME280;41883;49.544;8.646;2023-08-21T10:24:36;100958.97;;;44.79;nan
55685;BME280;41883;49.544;8.646;2023-08-21T10:27:06;100965.22;;;44.22;nan
55685;BME280;41883;49.544;8.646;2023-08-21T10:29:32;100953.84;;;43.69;nan
55685;BME280;41883;49.544;8.646;2023-08-21T10:31:59;100954.19;;;43.87;nan
55685;BME280;41883;49.544;8.646;2023-08-21T10:34:31;100951.84;;;43.89;nan
55685;BME280;41883;49.544;8.646;2023-08-21T10:39:29;100944.06;;;43.20;nan
55685;BME280;41883;49.544;8.646;2023-08-21T10:44:53;100948.84;;;43.59;nan
55685;BME280;41883;49.544;8.646;2023-08-21T10:49:57;100943.38;;;44.74;nan
55685;BME280;41883;49.544;8.646;2023-08-21T10:52:31;100946.44;;;45.49;nan
55685;BME280;41883;49.544;8.646;2023-08-21T10:54:58;100939.09;;;46.01;nan
55685;BME280;41883;49.544;8.646;2023-08-21T10:57:24;100939.97;;;45.41;nan
55685;BME280;41883;49.544;8.646;2023-08-21T10:59:54;100930.44;;;45.15;nan
55685;BME280;41883;49.544;8.646;2023-08-21T11:02:20;100933.66;;;45.48;nan
55685;BME280;41883;49.544;8.646;2023-08-21T11:04:45;100929.53;;;45.34;nan
55685;BME280;41883;49.544;8.646;2023-08-21T11:07:11;100929.53;;;45.34;nan
55685;BME280;41883;49.544;8.646;2023-08-21T11:09:40;100933.16;;;45.12;nan
55685;BME280;41883;49.544;8.646;2023-08-21T11:12:08;100932.13;;;45.20;nan
55685;BME280;41883;49.544;8.646;2023-08-21T11:14:34;100931.44;;;45.30;nan
55685;BME280;41883;49.544;8.646;2023-08-21T11:17:00;100936.41;;;45.78;nan
55685;BME280;41883;49.544;8.646;2023-08-21T11:19:25;100935.16;;;45.72;nan
55685;BME280;41883;49.544;8.646;2023-08-21T11:21:53;100939.91;;;45.38;nan
55685;BME280;41883;49.544;8.646;2023-08-21T11:24:21;100928.09;;;45.85;nan
55685;BME280;41883;49.544;8.646;2023-08-21T11:26:47;100936.84;;;45.80;nan
55685;BME280;41883;49.544;8.646;2023-08-21T11:29:12;100937.28;;;46.27;nan
55685;BME280;41883;49.544;8.646;2023-08-21T11:31:38;100933.47;;;47.05;nan
55685;BME280;41883;49.544;8.646;2023-08-21T11:34:03;100939.03;;;46.94;nan
55685;BME280;41883;49.544;8.646;2023-08-21T11:36:29;100944.38;;;46.58;nan
55685;BME280;41883;49.544;8.646;2023-08-21T11:38:58;100938.50;;;45.85;nan
55685;BME280;41883;49.544;8.646;2023-08-21T11:41:24;100925.28;;;45.48;nan
55685;BME280;41883;49.544;8.646;2023-08-21T11:43:49;100931.16;;;45.09;nan
55685;BME280;41883;49.544;8.646;2023-08-21T11:46:15;100925.44;;;44.25;nan
55685;BME280;41883;49.544;8.646;2023-08-21T11:48:43;100922.03;;;44.85;nan
55685;BME280;41883;49.544;8.646;2023-08-21T11:51:10;100919.75;;;45.21;nan
55685;BME280;41883;49.544;8.646;2023-08-21T11:53:38;100924.53;;;45.51;nan
55685;BME280;41883;49.544;8.646;2023-08-21T11:56:12;100924.28;;;45.29;nan
55685;BME280;41883;49.544;8.646;2023-08-21T11:58:41;100907.69;;;45.13;nan
55685;BME280;41883;49.544;8.646;2023-08-21T12:01:07;100916.56;;;44.66;nan
55685;BME280;41883;49.544;8.646;2023-08-21T12:03:39;100920.66;;;44.26;nan
55685;BME280;41883;49.544;8.646;2023-08-21T12:06:07;100921.63;;;43.52;nan
55685;BME280;41883;49.544;8.646;2023-08-21T12:08:32;100924.03;;;42.48;nan
55685;BME280;41883;49.544;8.646;2023-08-21T12:10:57;100912.94;;;41.59;nan
55685;BME280;41883;49.544;8.646;2023-08-21T12:13:22;100905.44;;;40.46;nan
55685;BME280;41883;49.544;8.646;2023-08-21T12:15:47;100894.69;;;40.32;nan
55685;BME280;41883;49.544;8.646;2023-08-21T12:18:13;100903.50;;;40.01;nan
55685;BME280;41883;49.544;8.646;2023-08-21T12:20:38;100909.81;;;39.68;nan
55685;BME280;41883;49.544;8.646;2023-08-21T12:23:03;100910.88;;;38.92;nan
55685;BME280;41883;49.544;8.646;2023-08-21T12:25:28;100905.75;;;38.25;nan
55685;BME280;41883;49.544;8.646;2023-08-21T12:27:55;100901.09;;;37.30;nan
55685;BME280;41883;49.544;8.646;2023-08-21T12:30:20;100910.50;;;37.20;nan
55685;BME280;41883;49.544;8.646;2023-08-21T12:32:46;100904.03;;;37.25;nan
55685;BME280;41883;49.544;8.646;2023-08-21T12:35:11;100902.00;;;36.91;nan
55685;BME280;41883;49.544;8.646;2023-08-21T12:37:37;100894.16;;;36.75;nan
55685;BME280;41883;49.544;8.646;2023-08-21T12:40:02;100889.00;;;36.83;nan
55685;BME280;41883;49.544;8.646;2023-08-21T12:42:27;100886.78;;;36.53;nan
55685;BME280;41883;49.544;8.646;2023-08-21T12:44:53;100890.03;;;36.55;nan
55685;BME280;41883;49.544;8.646;2023-08-21T12:47:18;100873.72;;;36.28;nan
55685;BME280;41883;49.544;8.646;2023-08-21T12:49:43;100877.13;;;35.80;nan
55685;BME280;41883;49.544;8.646;2023-08-21T12:52:08;100867.63;;;35.63;nan
55685;BME280;41883;49.544;8.646;2023-08-21T12:54:33;100874.28;;;35.62;nan
55685;BME280;41883;49.544;8.646;2023-08-21T12:56:58;100872.91;;;35.37;nan
55685;BME280;41883;49.544;8.646;2023-08-21T12:59:24;100866.63;;;35.23;nan
55685;BME280;41883;49.544;8.646;2023-08-21T13:01:49;100859.50;;;35.22;nan
55685;BME280;41883;49.544;8.646;2023-08-21T13:04:14;100853.00;;;35.04;nan
55685;BME280;41883;49.544;8.646;2023-08-21T13:06:39;100855.75;;;35.04;nan
55685;BME280;41883;49.544;8.646;2023-08-21T13:09:05;100852.81;;;35.00;nan
55685;BME280;41883;49.544;8.646;2023-08-21T13:11:31;100858.34;;;34.86;nan
55685;BME280;41883;49.544;8.646;2023-08-21T13:13:56;100852.00;;;34.58;nan
55685;BME280;41883;49.544;8.646;2023-08-21T13:16:22;100857.09;;;34.51;nan
55685;BME280;41883;49.544;8.646;2023-08-21T13:18:47;100853.53;;;34.51;nan
55685;BME280;41883;49.544;8.646;2023-08-21T13:21:12;100849.78;;;34.46;nan
55685;BME280;41883;49.544;8.646;2023-08-21T13:23:37;100854.28;;;34.42;nan
55685;BME280;41883;49.544;8.646;2023-08-21T13:26:03;100854.03;;;34.25;nan
55685;BME280;41883;49.544;8.646;2023-08-21T13:28:28;100852.53;;;34.33;nan
55685;BME280;41883;49.544;8.646;2023-08-21T13:30:53;100850.59;;;34.33;nan
55685;BME280;41883;49.544;8.646;2023-08-21T13:33:19;100845.31;;;34.23;nan
55685;BME280;41883;49.544;8.646;2023-08-21T13:35:44;100843.72;;;34.03;nan
55685;BME280;41883;49.544;8.646;2023-08-21T13:38:10;100838.81;;;34.00;nan
55685;BME280;41883;49.544;8.646;2023-08-21T13:40:35;100847.47;;;34.07;nan
55685;BME280;41883;49.544;8.646;2023-08-21T13:43:00;100842.22;;;34.11;nan
55685;BME280;41883;49.544;8.646;2023-08-21T13:45:25;100846.22;;;34.18;nan
55685;BME280;41883;49.544;8.646;2023-08-21T13:47:50;100835.84;;;34.29;nan
55685;BME280;41883;49.544;8.646;2023-08-21T13:50:16;100843.88;;;34.39;nan
55685;BME280;41883;49.544;8.646;2023-08-21T13:52:42;100839.53;;;34.52;nan
55685;BME280;41883;49.544;8.646;2023-08-21T13:55:08;100832.28;;;34.56;nan
55685;BME280;41883;49.544;8.646;2023-08-21T13:57:34;100841.66;;;34.55;nan
55685;BME280;41883;49.544;8.646;2023-08-21T13:59:59;100826.78;;;34.56;nan
55685;BME280;41883;49.544;8.646;2023-08-21T14:02:25;100830.03;;;34.58;nan
55685;BME280;41883;49.544;8.646;2023-08-21T14:04:50;100832.09;;;34.53;nan
55685;BME280;41883;49.544;8.646;2023-08-21T14:07:15;100819.09;;;34.44;nan
55685;BME280;41883;49.544;8.646;2023-08-21T14:09:40;100822.94;;;34.30;nan
55685;BME280;41883;49.544;8.646;2023-08-21T14:12:06;100816.44;;;34.25;nan
55685;BME280;41883;49.544;8.646;2023-08-21T14:14:32;100814.00;;;34.24;nan
55685;BME280;41883;49.544;8.646;2023-08-21T14:16:57;100798.53;;;34.14;nan
55685;BME280;41883;49.544;8.646;2023-08-21T14:19:23;100807.41;;;34.06;nan
55685;BME280;41883;49.544;8.646;2023-08-21T14:21:48;100800.03;;;34.07;nan
55685;BME280;41883;49.544;8.646;2023-08-21T14:24:14;100799.69;;;33.94;nan
55685;BME280;41883;49.544;8.646;2023-08-21T14:26:39;100802.50;;;33.75;nan
55685;BME280;41883;49.544;8.646;2023-08-21T14:29:07;100800.72;;;33.66;nan
55685;BME280;41883;49.544;8.646;2023-08-21T14:31:32;100795.94;;;33.57;nan
55685;BME280;41883;49.544;8.646;2023-08-21T14:33:57;100791.78;;;33.60;nan
55685;BME280;41883;49.544;8.646;2023-08-21T14:36:23;100782.16;;;33.62;nan
55685;BME280;41883;49.544;8.646;2023-08-21T14:38:48;100790.28;;;33.68;nan
55685;BME280;41883;49.544;8.646;2023-08-21T14:41:13;100790.09;;;33.45;nan
55685;BME280;41883;49.544;8.646;2023-08-21T14:43:38;100784.09;;;33.43;nan
55685;BME280;41883;49.544;8.646;2023-08-21T14:46:03;100779.72;;;33.42;nan
55685;BME280;41883;49.544;8.646;2023-08-21T14:48:29;100778.84;;;33.47;nan
55685;BME280;41883;49.544;8.646;2023-08-21T14:50:54;100780.22;;;33.44;nan
55685;BME280;41883;49.544;8.646;2023-08-21T14:53:19;100777.41;;;33.49;nan
55685;BME280;41883;49.544;8.646;2023-08-21T14:55:44;100779.53;;;33.19;nan
55685;BME280;41883;49.544;8.646;2023-08-21T14:58:10;100782.50;;;33.04;nan
55685;BME280;41883;49.544;8.646;2023-08-21T15:00:36;100776.44;;;33.07;nan
55685;BME280;41883;49.544;8.646;2023-08-21T15:03:01;100784.69;;;33.02;nan
55685;BME280;41883;49.544;8.646;2023-08-21T15:05:27;100766.41;;;32.97;nan
55685;BME280;41883;49.544;8.646;2023-08-21T15:07:52;100772.78;;;32.93;nan
55685;BME280;41883;49.544;8.646;2023-08-21T15:10:19;100771.22;;;33.06;nan
55685;BME280;41883;49.544;8.646;2023-08-21T15:12:44;100764.41;;;33.22;nan
55685;BME280;41883;49.544;8.646;2023-08-21T15:15:10;100769.00;;;33.27;nan
55685;BME280;41883;49.544;8.646;2023-08-21T15:17:35;100761.28;;;33.29;nan
55685;BME280;41883;49.544;8.646;2023-08-21T15:20:00;100762.25;;;33.38;nan
55685;BME280;41883;49.544;8.646;2023-08-21T15:22:25;100755.25;;;33.46;nan
55685;BME280;41883;49.544;8.646;2023-08-21T15:24:50;100751.47;;;33.41;nan
55685;BME280;41883;49.544;8.646;2023-08-21T15:27:15;100747.31;;;33.44;nan
55685;BME280;41883;49.544;8.646;2023-08-21T15:29:42;100736.97;;;33.41;nan
55685;BME280;41883;49.544;8.646;2023-08-21T15:32:07;100739.72;;;33.41;nan
55685;BME280;41883;49.544;8.646;2023-08-21T15:34:32;100738.66;;;33.37;nan
55685;BME280;41883;49.544;8.646;2023-08-21T15:36:57;100742.63;;;33.31;nan
55685;BME280;41883;49.544;8.646;2023-08-21T15:39:23;100730.91;;;33.25;nan
55685;BME280;41883;49.544;8.646;2023-08-21T15:41:48;100731.84;;;33.20;nan